Time;durP1;ratioP1;P1;durP2;ratioP2;P2;SDS_P1;SDS_P2;PMS_P1;PMS_P2;Temp;Humidity;BMP_temperature;BMP_pressure;BME280_temperature;BME280_humidity;BME280_pressure;Samples;Min_cycle;Max_cycle;Signal;HPM_P1;HPM_P2
2022/09/15 00:02:24;;;;;;;10.70;9.20;;;;;;;11.25;92.90;98460.16;109215;1277;22468;-64
2022/09/15 00:04:51;;;;;;;11.90;8.30;;;;;;;11.25;93.00;98463.52;109236;1274;139326;-64
2022/09/15 00:07:17;;;;;;;;;;;;;;;11.23;93.08;98463.83;109362;1274;22467;-64
2022/09/15 00:09:44;;;;;;;8.80;7.00;;;;;;;11.21;92.72;98457.90;109131;1277;23256;-64
2022/09/15 00:12:11;;;;;;;;;;;;;;;11.21;92.88;98455.77;109353;1274;22506;-64
2022/09/15 00:14:37;;;;;;;11.20;7.90;;;;;;;11.18;92.94;98453.73;109365;1274;22439;-64
2022/09/15 00:17:04;;;;;;;9.20;6.90;;;;;;;11.16;92.73;98451.02;109252;1274;139051;-64
2022/09/15 00:19:31;;;;;;;7.90;7.10;;;;;;;11.15;92.79;98448.84;109256;1276;22443;-64
2022/09/15 00:21:58;;;;;;;;;;;;;;;11.15;92.89;98446.88;109114;1275;140513;-64
2022/09/15 00:24:24;;;;;;;8.70;7.40;;;;;;;11.14;92.99;98442.20;109212;1276;22440;-64
2022/09/15 00:26:51;;;;;;;;;;;;;;;11.12;92.77;98437.86;109382;1274;22482;-64
2022/09/15 00:29:18;;;;;;;12.20;7.90;;;;;;;11.09;92.68;98441.07;109261;1274;124803;-64
2022/09/15 00:31:45;;;;;;;8.80;7.20;;;;;;;11.07;92.40;98439.89;109402;1276;23206;-64
2022/09/15 00:34:11;;;;;;;;;;;;;;;11.05;92.31;98445.09;109231;1274;138064;-64
2022/09/15 00:36:38;;;;;;;12.20;7.80;;;;;;;11.02;92.58;98441.39;109190;1276;22491;-64
2022/09/15 00:39:06;;;;;;;8.50;6.20;;;;;;;10.99;92.65;98443.48;109285;1274;22457;-61
2022/09/15 00:41:32;;;;;;;5.50;4.80;;;;;;;10.97;92.56;98448.95;109318;1274;139982;-64
2022/09/15 00:44:02;;;;;;;7.10;6.40;;;;;;;10.94;92.35;98449.77;109319;1274;22243;-64
2022/09/15 00:46:33;;;;;;;9.10;8.10;;;;;;;10.92;92.40;98448.96;109240;1274;138938;-64
2022/09/15 00:49:06;;;;;;;7.70;6.90;;;;;;;10.90;92.25;98448.27;109353;1274;22699;-64
2022/09/15 00:51:53;;;;;;;10.50;7.80;;;;;;;10.89;92.34;98446.31;109344;1274;22487;-65
2022/09/15 00:54:23;;;;;;;8.40;7.10;;;;;;;10.86;92.08;98444.59;109162;1274;22386;-64
2022/09/15 00:56:51;;;;;;;8.20;6.20;;;;;;;10.83;91.92;98442.70;109226;1274;22557;-64
2022/09/15 00:59:21;;;;;;;7.90;7.10;;;;;;;10.81;92.00;98445.75;109301;1274;139347;-64
2022/09/15 01:01:49;;;;;;;6.90;6.20;;;;;;;10.79;91.82;98443.41;109233;1275;22459;-63
2022/09/15 01:04:16;;;;;;;6.90;5.90;;;;;;;10.78;91.86;98442.33;109208;1274;141141;-63
2022/09/15 01:06:46;;;;;;;6.10;5.20;;;;;;;10.78;91.91;98442.66;109282;1274;22520;-63
2022/09/15 01:09:19;;;;;;;5.80;5.20;;;;;;;10.77;91.96;98441.09;109161;1276;22365;-64
2022/09/15 01:11:46;;;;;;;7.00;6.30;;;;;;;10.77;92.02;98442.34;109092;1272;138083;-64
2022/09/15 01:14:13;;;;;;;8.10;6.10;;;;;;;10.78;92.13;98443.97;109317;1277;22640;-63
2022/09/15 01:16:49;;;;;;;8.60;7.60;;;;;;;10.77;92.06;98439.34;109276;1274;138215;-64
2022/09/15 01:19:37;;;;;;;9.70;7.70;;;;;;;10.77;92.08;98434.44;109243;1276;22562;-63
2022/09/15 01:22:34;;;;;;;12.10;8.00;;;;;;;10.77;92.17;98426.54;109264;1274;138625;-64
2022/09/15 01:25:34;;;;;;;8.90;8.00;;;;;;;10.80;92.54;98424.45;109313;1274;22708;-63
2022/09/15 01:28:09;;;;;;;8.70;7.80;;;;;;;10.82;92.67;98411.58;108479;1281;138786;-64
2022/09/15 01:30:37;;;;;;;8.80;7.90;;;;;;;10.83;92.70;98406.84;108438;1282;23299;-64
2022/09/15 01:33:16;;;;;;;10.70;7.50;;;;;;;10.85;92.71;98409.77;108629;1281;22418;-64
2022/09/15 01:36:15;;;;;;;10.30;9.30;;;;;;;10.88;92.94;98410.56;108548;1282;139730;-64
2022/09/15 01:38:55;;;;;;;12.10;10.00;;;;;;;10.92;93.12;98405.80;108209;1286;22416;-64
2022/09/15 01:41:37;;;;;;;15.30;11.60;;;;;;;10.99;93.71;98407.66;104077;1286;139373;-64
2022/09/15 01:44:13;;;;;;;14.50;11.10;;;;;;;11.06;94.19;98408.92;108256;1286;23596;-64
2022/09/15 01:46:46;;;;;;;14.60;12.80;;;;;;;11.13;94.45;98402.80;108042;1287;140170;-64
2022/09/15 01:49:16;;;;;;;16.50;12.80;;;;;;;11.19;95.08;98395.59;108197;1286;22537;-64
2022/09/15 01:51:43;;;;;;;17.50;13.80;;;;;;;11.25;95.28;98386.26;108131;1286;22607;-64
2022/09/15 01:54:10;;;;;;;16.20;12.10;;;;;;;11.31;95.34;98384.11;108164;1286;22484;-64
2022/09/15 01:56:37;;;;;;;;;;;;;;;11.37;95.86;98381.21;108146;1287;22586;-64
2022/09/15 01:59:04;;;;;;;18.60;13.30;;;;;;;11.42;95.82;98383.54;108119;1286;125186;-64
2022/09/15 02:01:45;;;;;;;15.00;12.40;;;;;;;11.46;96.14;98380.92;108207;1286;23103;-64
2022/09/15 02:04:14;;;;;;;16.20;13.60;;;;;;;11.52;96.18;98375.79;108044;1283;139540;-64
2022/09/15 02:06:54;;;;;;;14.10;12.60;;;;;;;11.58;96.80;98376.30;108580;1281;22292;-64
2022/09/15 02:09:39;;;;;;;16.60;12.90;;;;;;;11.64;97.16;98375.95;108787;1281;22427;-65
2022/09/15 02:12:32;;;;;;;14.70;12.30;;;;;;;11.72;97.15;98376.77;108427;1281;139955;-64
2022/09/15 02:15:03;;;;;;;12.00;10.80;;;;;;;11.78;97.39;98378.82;108532;1281;23131;-64
2022/09/15 02:17:34;;;;;;;12.10;10.70;;;;;;;11.82;97.52;98379.41;109282;1274;139254;-64
2022/09/15 02:20:04;;;;;;;12.90;10.70;;;;;;;11.86;97.41;98377.23;109216;1275;22606;-64
2022/09/15 02:22:31;;;;;;;14.20;9.70;;;;;;;11.88;97.24;98378.62;109023;1276;140008;-64
2022/09/15 02:25:03;;;;;;;14.70;10.30;;;;;;;11.89;97.39;98377.99;109160;1276;22510;-64
2022/09/15 02:27:36;;;;;;;14.10;10.70;;;;;;;11.90;97.23;98376.95;109280;1276;23692;-64
2022/09/15 02:30:08;;;;;;;12.90;10.90;;;;;;;11.91;97.27;98376.78;109312;1273;138524;-64
2022/09/15 02:32:36;;;;;;;12.20;10.30;;;;;;;11.92;97.01;98380.90;109144;1274;23118;-64
2022/09/15 02:35:05;;;;;;;11.50;9.80;;;;;;;11.94;97.14;98380.77;109102;1274;138530;-64
2022/09/15 02:37:32;;;;;;;12.70;9.90;;;;;;;11.96;97.17;98380.77;109275;1274;22548;-64
2022/09/15 02:39:59;;;;;;;12.00;9.90;;;;;;;11.96;97.15;98379.99;109195;1274;139985;-64
2022/09/15 02:42:27;;;;;;;11.90;9.00;;;;;;;11.97;97.00;98377.56;109199;1274;22532;-64
2022/09/15 02:44:54;;;;;;;10.60;9.50;;;;;;;11.97;96.81;98378.39;109373;1274;22524;-64
2022/09/15 02:47:22;;;;;;;10.80;9.10;;;;;;;11.96;96.79;98379.50;109247;1273;138661;-64
2022/09/15 02:49:49;;;;;;;10.70;8.70;;;;;;;11.96;96.77;98377.80;109258;1276;22598;-64
2022/09/15 02:52:15;;;;;;;11.70;9.80;;;;;;;11.96;96.61;98372.98;109212;1274;139107;-64
2022/09/15 02:54:42;;;;;;;18.30;10.50;;;;;;;11.95;96.79;98368.58;109288;1274;22508;-64
2022/09/15 02:57:09;;;;;;;12.90;11.50;;;;;;;11.95;96.72;98366.23;109290;1276;22443;-64
2022/09/15 03:02:22;;;;;;;10.30;9.30;;;;;;;11.98;97.03;98359.61;109281;1276;22456;-63
2022/09/15 03:04:49;;;;;;;10.10;9.10;;;;;;;11.99;97.06;98360.27;109128;1276;139748;-63
2022/09/15 03:07:17;;;;;;;10.20;8.80;;;;;;;11.99;97.08;98354.69;109251;1277;22552;-63
2022/09/15 03:09:44;;;;;;;13.70;10.80;;;;;;;11.98;96.93;98351.65;109242;1276;22523;-63
2022/09/15 03:12:10;;;;;;;11.60;9.80;;;;;;;11.97;96.89;98350.74;109338;1275;22519;-63
2022/09/15 03:14:37;;;;;;;10.80;9.60;;;;;;;11.96;96.93;98340.34;109324;1275;22453;-63
2022/09/15 03:17:04;;;;;;;12.90;9.70;;;;;;;11.97;96.82;98336.13;109263;1274;139211;-63
2022/09/15 03:19:31;;;;;;;10.80;9.20;;;;;;;11.98;97.01;98332.98;109399;1274;22516;-64
2022/09/15 03:21:57;;;;;;;11.80;9.90;;;;;;;11.97;96.74;98334.59;109252;1274;138371;-64
2022/09/15 03:24:24;;;;;;;9.90;8.90;;;;;;;11.94;96.58;98335.80;109307;1276;22255;-64
2022/09/15 03:26:51;;;;;;;11.10;10.00;;;;;;;11.90;96.37;98331.30;109405;1274;23150;-64
2022/09/15 03:29:18;;;;;;;12.60;9.10;;;;;;;11.90;96.37;98323.13;109293;1274;138868;-64
2022/09/15 03:31:44;;;;;;;10.80;9.00;;;;;;;11.90;96.32;98321.44;109295;1277;22440;-65
2022/09/15 03:34:11;;;;;;;10.60;9.40;;;;;;;11.89;96.58;98315.72;109158;1276;139191;-64
2022/09/15 03:36:38;;;;;;;9.50;8.60;;;;;;;11.88;96.44;98317.09;109323;1275;22465;-65
2022/09/15 03:39:05;;;;;;;10.20;9.20;;;;;;;11.87;96.46;98308.92;109371;1274;22480;-60
2022/09/15 03:41:32;;;;;;;11.50;9.60;;;;;;;11.86;96.33;98306.80;109147;1277;138909;-73
2022/09/15 03:43:59;;;;;;;;;;;;;;;11.86;96.60;98300.36;109202;1277;22508;-72
2022/09/15 03:46:26;;;;;;;11.70;9.90;;;;;;;11.86;96.64;98296.32;109259;1274;126874;-72
2022/09/15 03:48:53;;;;;;;13.40;10.50;;;;;;;11.84;96.78;98306.27;109247;1276;22483;-72
2022/09/15 03:51:20;;;;;;;14.90;11.10;;;;;;;11.85;97.13;98321.77;109430;1274;22660;-73
2022/09/15 03:53:47;;;;;;;15.40;11.20;;;;;;;11.86;97.44;98321.48;109121;1276;138786;-72
2022/09/15 03:56:23;;;;;;;13.90;11.10;;;;;;;11.87;97.25;98318.36;109377;1275;23309;-73
2022/09/15 03:58:50;;;;;;;13.60;11.10;;;;;;;11.90;97.86;98320.50;109214;1274;142297;-72
2022/09/15 04:01:17;;;;;;;13.10;11.70;;;;;;;11.93;97.96;98325.98;109264;1276;22762;-72
2022/09/15 04:03:45;;;;;;;15.00;11.40;;;;;;;11.95;97.97;98330.91;109277;1276;22286;-72
2022/09/15 04:06:20;;;;;;;14.00;12.50;;;;;;;11.97;98.28;98328.73;109414;1274;22549;-72
2022/09/15 04:08:48;;;;;;;12.90;11.50;;;;;;;12.02;98.53;98332.16;109267;1277;22459;-72
2022/09/15 04:11:15;;;;;;;13.20;11.80;;;;;;;12.06;98.69;98336.09;109306;1274;139423;-72
2022/09/15 04:13:42;;;;;;;14.50;13.00;;;;;;;12.10;98.85;98335.72;109361;1274;22465;-72
2022/09/15 04:16:13;;;;;;;14.00;11.40;;;;;;;12.13;98.99;98324.89;109265;1277;140559;-72
2022/09/15 04:18:40;;;;;;;14.00;11.70;;;;;;;12.17;99.09;98317.95;109331;1276;22486;-72
2022/09/15 04:21:10;;;;;;;14.30;11.40;;;;;;;12.21;99.07;98322.54;109409;1274;22456;-73
2022/09/15 04:23:37;;;;;;;12.40;11.20;;;;;;;12.23;99.35;98340.04;109196;1277;139163;-72
2022/09/15 04:26:06;;;;;;;13.60;11.10;;;;;;;12.26;99.08;98357.45;109500;1274;23190;-72
2022/09/15 04:28:35;;;;;;;12.90;11.00;;;;;;;12.29;99.32;98357.07;109198;1277;139520;-72
2022/09/15 04:31:07;;;;;;;13.70;10.60;;;;;;;12.32;99.50;98349.33;109309;1275;23165;-72
2022/09/15 04:33:34;;;;;;;14.50;11.80;;;;;;;12.35;99.41;98341.64;109514;1274;23179;-71
2022/09/15 04:36:01;;;;;;;16.60;11.90;;;;;;;12.38;99.44;98337.11;109218;1276;138409;-72
2022/09/15 04:38:28;;;;;;;15.80;12.10;;;;;;;12.41;99.57;98341.22;109387;1274;22804;-72
2022/09/15 04:40:55;;;;;;;15.50;11.40;;;;;;;12.44;99.84;98343.34;107814;1277;139735;-64
2022/09/15 04:43:22;;;;;;;13.50;10.90;;;;;;;12.48;99.80;98333.01;109291;1276;22407;-64
2022/09/15 04:45:49;;;;;;;12.90;11.40;;;;;;;12.52;99.96;98324.04;109191;1277;138546;-64
2022/09/15 04:48:15;;;;;;;15.90;11.80;;;;;;;12.57;100.00;98317.50;109394;1276;23083;-64
2022/09/15 04:50:42;;;;;;;14.50;10.70;;;;;;;12.62;100.00;98305.27;109393;1274;22460;-62
2022/09/15 04:53:09;;;;;;;12.90;11.60;;;;;;;12.67;100.00;98301.46;109368;1274;139718;-64
2022/09/15 04:55:36;;;;;;;16.10;10.90;;;;;;;12.72;100.00;98297.10;109497;1274;22474;-64
2022/09/15 04:58:03;;;;;;;15.90;11.80;;;;;;;12.77;100.00;98294.35;109248;1274;139770;-64
2022/09/15 05:00:30;;;;;;;14.00;10.90;;;;;;;12.82;100.00;98295.19;109285;1277;23950;-64
2022/09/15 05:02:58;;;;;;;12.20;10.40;;;;;;;12.86;100.00;98290.98;109233;1276;23349;-64
2022/09/15 05:05:25;;;;;;;14.00;10.50;;;;;;;12.91;100.00;98289.85;109360;1274;139500;-64
2022/09/15 05:07:52;;;;;;;15.30;10.60;;;;;;;12.96;100.00;98289.83;109336;1276;22437;-64
2022/09/15 05:10:19;;;;;;;11.80;10.60;;;;;;;13.01;100.00;98287.20;109245;1276;140327;-64
2022/09/15 05:12:46;;;;;;;13.10;10.60;;;;;;;13.05;100.00;98283.40;109481;1274;23232;-64
2022/09/15 05:15:13;;;;;;;13.60;10.70;;;;;;;13.11;100.00;98287.23;109480;1274;23300;-64
2022/09/15 05:17:39;;;;;;;12.30;10.60;;;;;;;13.15;100.00;98287.25;109174;1276;138835;-64
2022/09/15 05:20:06;;;;;;;13.30;10.10;;;;;;;13.21;100.00;98286.72;109282;1276;22462;-64
2022/09/15 05:22:33;;;;;;;16.10;11.10;;;;;;;13.25;100.00;98284.62;109196;1275;139401;-64
2022/09/15 05:25:06;;;;;;;13.90;10.90;;;;;;;13.31;100.00;98275.40;109496;1274;22535;-63
2022/09/15 05:27:33;;;;;;;16.40;11.30;;;;;;;13.36;100.00;98270.77;109324;1274;22453;-63
2022/09/15 05:30:00;;;;;;;12.60;10.70;;;;;;;13.40;100.00;98268.14;109267;1274;138827;-63
2022/09/15 05:32:47;;;;;;;14.30;12.10;;;;;;;13.46;100.00;98270.92;109254;1275;23470;-63
2022/09/15 05:35:13;;;;;;;11.70;10.50;;;;;;;13.49;100.00;98268.45;109133;1276;138562;-63
2022/09/15 05:37:40;;;;;;;14.70;11.40;;;;;;;13.52;100.00;98271.44;109338;1274;22272;-63
2022/09/15 05:40:08;;;;;;;18.30;10.50;;;;;;;13.56;100.00;98276.07;109303;1274;139375;-63
2022/09/15 05:42:35;;;;;;;12.40;11.10;;;;;;;13.59;100.00;98277.09;109297;1274;22461;-63
2022/09/15 05:45:02;;;;;;;12.90;10.90;;;;;;;13.61;100.00;98272.77;109306;1276;22413;-63
2022/09/15 05:47:29;;;;;;;11.20;10.10;;;;;;;13.63;100.00;98275.85;109205;1274;138779;-63
2022/09/15 05:49:55;;;;;;;12.10;9.60;;;;;;;13.66;100.00;98276.94;109291;1277;23156;-63
2022/09/15 05:52:22;;;;;;;13.80;11.30;;;;;;;13.68;100.00;98279.80;109223;1274;139555;-63
2022/09/15 05:54:49;;;;;;;14.00;9.30;;;;;;;13.69;100.00;98277.80;109347;1274;22530;-64
2022/09/15 05:57:16;;;;;;;12.30;10.20;;;;;;;13.72;100.00;98280.34;109411;1274;22423;-64
2022/09/15 05:59:42;;;;;;;11.60;9.80;;;;;;;13.74;100.00;98281.48;109192;1276;138863;-64
2022/09/15 06:02:10;;;;;;;11.50;10.00;;;;;;;13.76;100.00;98288.34;109443;1274;22644;-63
2022/09/15 06:04:37;;;;;;;12.10;9.80;;;;;;;13.80;100.00;98290.63;109190;1276;139121;-64
2022/09/15 06:07:04;;;;;;;11.80;10.00;;;;;;;13.82;100.00;98293.55;109196;1277;22476;-64
2022/09/15 06:09:31;;;;;;;15.50;9.80;;;;;;;13.86;100.00;98290.92;109435;1274;22460;-63
2022/09/15 06:11:58;;;;;;;12.90;10.10;;;;;;;13.90;100.00;98286.73;109209;1277;140412;-64
2022/09/15 06:14:25;;;;;;;14.70;10.60;;;;;;;13.94;100.00;98290.27;109267;1276;23265;-64
2022/09/15 06:16:53;;;;;;;16.90;11.30;;;;;;;13.98;100.00;98289.78;109055;1277;138955;-63
2022/09/15 06:19:20;;;;;;;12.30;10.70;;;;;;;14.01;100.00;98288.70;109219;1276;23439;-64
2022/09/15 06:21:47;;;;;;;13.00;10.80;;;;;;;14.04;100.00;98294.65;109251;1274;138679;-63
2022/09/15 06:24:16;;;;;;;13.10;11.10;;;;;;;14.07;100.00;98295.99;109225;1277;22465;-63
2022/09/15 06:26:43;;;;;;;13.50;9.90;;;;;;;14.11;100.00;98291.59;109398;1274;23859;-63
2022/09/15 06:29:10;;;;;;;15.40;10.90;;;;;;;14.14;100.00;98293.20;109205;1277;139000;-63
2022/09/15 06:31:37;;;;;;;13.20;10.30;;;;;;;14.18;100.00;98287.69;109389;1274;22654;-63
2022/09/15 06:34:04;;;;;;;14.70;11.10;;;;;;;14.22;100.00;98288.38;109206;1276;140515;-63
2022/09/15 06:36:31;;;;;;;17.90;11.70;;;;;;;14.25;100.00;98291.85;109420;1274;23287;-63
2022/09/15 06:38:58;;;;;;;13.50;10.70;;;;;;;14.28;100.00;98285.58;109290;1276;22502;-63
2022/09/15 06:41:24;;;;;;;13.40;11.50;;;;;;;14.31;100.00;98274.66;105177;1277;139372;-62
2022/09/15 06:43:51;;;;;;;16.40;11.20;;;;;;;14.34;100.00;98270.20;105114;1275;22781;-62
2022/09/15 06:46:20;;;;;;;16.20;10.10;;;;;;;14.35;100.00;98278.43;104819;1277;139041;-62
2022/09/15 06:48:47;;;;;;;15.90;10.40;;;;;;;14.37;99.98;98272.20;109299;1276;22484;-63
2022/09/15 06:51:15;;;;;;;11.60;10.40;;;;;;;14.39;99.95;98270.13;109423;1274;22461;-63
2022/09/15 06:53:42;;;;;;;12.70;9.40;;;;;;;14.42;99.96;98267.39;109336;1274;140869;-61
2022/09/15 06:56:11;;;;;;;14.90;9.30;;;;;;;14.45;99.91;98271.02;109333;1274;22461;-63
2022/09/15 06:58:38;;;;;;;15.70;10.10;;;;;;;14.48;99.74;98277.16;109274;1274;138210;-62
2022/09/15 07:01:11;;;;;;;16.70;9.80;;;;;;;14.50;99.65;98277.52;109457;1274;22506;-63
2022/09/15 07:03:42;;;;;;;17.30;10.60;;;;;;;14.53;99.55;98277.59;109397;1274;23343;-63
2022/09/15 07:06:10;;;;;;;17.50;10.30;;;;;;;14.57;99.52;98272.05;109381;1274;139106;-63
2022/09/15 07:08:38;;;;;;;12.00;9.70;;;;;;;14.60;99.54;98268.27;109224;1277;22469;-63
2022/09/15 07:11:05;;;;;;;13.30;11.60;;;;;;;14.64;99.58;98260.17;109280;1274;138679;-63
2022/09/15 07:13:32;;;;;;;15.90;11.40;;;;;;;14.69;99.64;98261.86;109253;1277;23923;-63
2022/09/15 07:16:00;;;;;;;15.40;10.60;;;;;;;14.73;99.65;98261.77;109337;1274;138986;-63
2022/09/15 07:18:27;;;;;;;15.50;11.50;;;;;;;14.78;99.76;98262.02;109423;1276;22443;-63
2022/09/15 07:21:02;;;;;;;11.50;10.20;;;;;;;14.84;99.84;98260.77;109389;1274;23260;-63
2022/09/15 07:23:29;;;;;;;13.30;10.60;;;;;;;14.92;99.97;98261.27;109250;1276;138498;-63
2022/09/15 07:26:08;;;;;;;13.70;9.70;;;;;;;14.98;99.96;98258.63;109409;1274;23362;-63
2022/09/15 07:28:35;;;;;;;14.70;10.30;;;;;;;15.05;99.85;98258.54;109254;1274;138733;-63
2022/09/15 07:31:03;;;;;;;20.20;10.40;;;;;;;15.10;99.67;98253.56;109449;1274;22573;-63
2022/09/15 07:33:30;;;;;;;18.40;10.70;;;;;;;15.16;99.55;98249.15;109460;1274;22451;-63
2022/09/15 07:35:57;;;;;;;16.00;9.20;;;;;;;15.24;99.54;98244.88;109195;1274;139481;-63
2022/09/15 07:38:24;;;;;;;12.70;10.10;;;;;;;15.30;99.41;98243.76;109198;1277;23306;-64
2022/09/15 07:40:51;;;;;;;22.10;11.20;;;;;;;15.37;99.23;98244.61;109204;1274;139065;-64
2022/09/15 07:43:17;;;;;;;17.70;9.30;;;;;;;15.41;98.93;98243.38;109467;1274;22601;-63
2022/09/15 07:45:45;;;;;;;13.10;9.30;;;;;;;15.45;98.54;98238.67;109402;1274;22459;-64
2022/09/15 07:48:12;;;;;;;13.60;9.80;;;;;;;15.49;98.22;98234.29;109477;1274;23416;-64
2022/09/15 07:50:38;;;;;;;11.10;9.40;;;;;;;15.54;97.91;98238.60;109251;1276;23594;-64
2022/09/15 07:53:06;;;;;;;14.60;9.60;;;;;;;15.58;97.54;98234.49;109166;1276;139022;-64
2022/09/15 07:55:32;;;;;;;15.50;9.30;;;;;;;15.61;97.11;98236.10;109393;1276;22494;-64
2022/09/15 07:57:59;;;;;;;14.10;9.50;;;;;;;15.63;96.60;98236.46;109291;1274;138986;-64
2022/09/15 08:00:26;;;;;;;12.20;10.00;;;;;;;15.66;96.25;98241.05;109321;1276;22467;-64
2022/09/15 08:02:54;;;;;;;12.10;9.80;;;;;;;15.67;95.95;98243.64;109382;1274;22436;-64
2022/09/15 08:05:24;;;;;;;20.10;11.00;;;;;;;15.70;95.65;98241.36;109120;1276;140019;-64
2022/09/15 08:07:51;;;;;;;14.50;10.20;;;;;;;15.73;95.44;98235.77;109326;1277;22546;-64
2022/09/15 08:10:18;;;;;;;21.60;10.60;;;;;;;15.77;95.42;98234.36;109160;1276;138915;-63
2022/09/15 08:12:44;;;;;;;15.60;10.40;;;;;;;15.79;95.11;98235.57;109300;1276;22480;-63
2022/09/15 08:15:11;;;;;;;14.40;10.00;;;;;;;15.81;94.85;98234.63;109314;1276;22488;-63
2022/09/15 08:17:38;;;;;;;18.40;10.10;;;;;;;15.82;94.51;98229.11;109367;1274;139631;-63
2022/09/15 08:20:05;;;;;;;18.30;9.60;;;;;;;15.85;94.22;98228.14;109392;1274;22465;-63
2022/09/15 08:22:32;;;;;;;11.90;9.40;;;;;;;15.88;94.07;98227.23;109226;1277;138189;-63
2022/09/15 08:24:59;;;;;;;13.40;9.60;;;;;;;15.90;94.01;98228.98;109284;1274;23280;-63
2022/09/15 08:27:26;;;;;;;12.90;9.90;;;;;;;15.93;93.85;98229.10;109405;1272;23182;-63
2022/09/15 08:29:53;;;;;;;11.70;9.80;;;;;;;15.96;93.68;98227.96;109091;1276;138993;-63
2022/09/15 08:32:19;;;;;;;11.10;9.00;;;;;;;15.97;93.49;98229.45;109274;1276;22488;-64
2022/09/15 08:34:46;;;;;;;13.80;10.00;;;;;;;16.00;93.56;98232.04;109186;1274;139317;-65
2022/09/15 08:37:13;;;;;;;13.10;10.30;;;;;;;16.03;93.59;98228.45;109420;1274;22446;-63
2022/09/15 08:39:40;;;;;;;14.80;10.10;;;;;;;16.06;93.70;98220.67;109391;1274;22586;-64
2022/09/15 08:42:10;;;;;;;13.60;9.40;;;;;;;16.08;93.51;98218.52;109162;1275;138442;-63
2022/09/15 08:44:37;;;;;;;13.70;9.50;;;;;;;16.09;93.41;98220.10;109045;1277;22433;-65
2022/09/15 08:47:14;;;;;;;13.50;10.00;;;;;;;16.10;93.21;98223.02;109274;1274;138431;-64
2022/09/15 08:49:47;;;;;;;16.20;9.30;;;;;;;16.10;93.00;98222.58;109289;1274;22518;-64
2022/09/15 08:52:29;;;;;;;;;;;;;;;16.10;92.82;98219.13;109383;1274;138433;-66
2022/09/15 08:54:57;;;;;;;11.80;9.00;;;;;;;16.09;92.74;98215.30;108061;1277;1622734;-64
2022/09/15 08:59:14;;;;;;;11.90;9.10;;;;;;;16.12;92.66;98215.73;101918;1306;545701;-63
2022/09/15 09:02:08;;;;;;;18.60;10.30;;;;;;;16.10;92.69;98218.02;107982;1287;22504;-64
2022/09/15 09:04:38;;;;;;;12.30;10.00;;;;;;;16.12;92.79;98222.75;107975;1287;138139;-63
2022/09/15 09:07:15;;;;;;;16.90;9.50;;;;;;;16.13;92.91;98220.45;108017;1289;22518;-63
2022/09/15 09:09:56;;;;;;;10.40;9.30;;;;;;;16.17;93.14;98221.77;107865;1286;23184;-63
2022/09/15 09:12:40;;;;;;;12.10;9.20;;;;;;;16.19;93.20;98217.64;106853;1287;1675670;-63
2022/09/15 09:15:42;;;;;;;15.30;9.80;;;;;;;16.22;93.21;98212.44;108190;1286;22469;-63
2022/09/15 09:18:45;;;;;;;13.80;9.40;;;;;;;16.25;93.11;98212.17;107776;1286;137852;-63
2022/09/15 09:21:32;;;;;;;14.00;10.10;;;;;;;16.29;92.88;98214.77;108257;1286;22502;-64
2022/09/15 09:24:13;;;;;;;16.00;10.40;;;;;;;16.32;92.85;98217.06;108030;1287;138884;-63
2022/09/15 09:26:39;;;;;;;10.50;8.50;;;;;;;16.35;92.88;98215.25;108019;1287;22442;-64
2022/09/15 09:29:16;;;;;;;12.40;9.10;;;;;;;16.38;92.82;98211.52;107937;1287;138077;-64
2022/09/15 09:31:48;;;;;;;11.90;10.60;;;;;;;16.41;92.76;98210.33;108194;1286;23264;-63
2022/09/15 09:34:20;;;;;;;9.80;8.80;;;;;;;16.44;92.59;98205.75;108131;1286;138617;-63
2022/09/15 09:36:54;;;;;;;10.90;8.30;;;;;;;16.48;92.54;98204.98;108124;1287;22498;-63
2022/09/15 09:39:21;;;;;;;10.50;8.90;;;;;;;16.52;92.33;98201.00;108098;1286;22557;-63
2022/09/15 09:41:49;;;;;;;9.00;7.70;;;;;;;16.58;92.50;98201.14;107947;1287;138701;-64
2022/09/15 09:44:16;;;;;;;9.30;8.00;;;;;;;16.63;92.37;98200.26;108737;1281;22553;-63
2022/09/15 09:46:43;;;;;;;14.10;8.30;;;;;;;16.67;92.20;98203.91;108620;1281;138339;-63
2022/09/15 09:49:12;;;;;;;9.10;7.90;;;;;;;16.73;91.97;98203.83;108743;1281;22438;-62
2022/09/15 09:51:47;;;;;;;17.30;7.90;;;;;;;16.76;91.67;98203.80;108872;1281;23481;-63
2022/09/15 09:54:19;;;;;;;10.20;7.70;;;;;;;16.80;91.00;98203.89;108717;1281;22634;-63
2022/09/15 09:56:49;;;;;;;7.90;7.00;;;;;;;16.82;90.46;98207.98;108852;1279;23309;-62
2022/09/15 09:59:44;;;;;;;8.00;7.20;;;;;;;16.85;90.10;98209.93;108830;1281;138819;-63
2022/09/15 10:02:10;;;;;;;11.10;7.50;;;;;;;16.88;89.68;98213.17;108800;1281;22470;-63
2022/09/15 10:04:38;;;;;;;11.90;8.10;;;;;;;16.90;89.32;98218.59;108737;1281;138395;-63
2022/09/15 10:07:05;;;;;;;8.30;7.00;;;;;;;16.92;89.17;98219.39;108776;1281;22578;-63
2022/09/15 10:09:32;;;;;;;9.30;7.40;;;;;;;16.94;88.90;98222.56;108717;1281;23112;-63
2022/09/15 10:11:59;;;;;;;8.20;6.60;;;;;;;16.96;88.72;98220.41;108737;1280;139746;-63
2022/09/15 10:14:34;;;;;;;9.40;7.00;;;;;;;16.99;88.80;98223.23;108807;1279;22477;-63
2022/09/15 10:17:01;;;;;;;11.30;7.30;;;;;;;17.03;88.80;98227.46;108621;1281;138857;-63
2022/09/15 10:19:29;;;;;;;8.60;6.80;;;;;;;17.06;88.89;98224.66;108698;1281;22458;-63
2022/09/15 10:21:56;;;;;;;14.20;7.20;;;;;;;17.10;88.82;98220.90;108499;1280;138826;-62
2022/09/15 10:24:29;;;;;;;9.50;7.00;;;;;;;17.14;88.93;98221.63;108955;1277;22534;-62
2022/09/15 10:27:16;;;;;;;8.30;6.20;;;;;;;17.17;88.82;98222.84;108970;1278;22497;-62
2022/09/15 10:29:43;;;;;;;8.10;5.90;;;;;;;17.21;88.57;98224.65;108653;1281;139039;-63
2022/09/15 10:32:26;;;;;;;8.70;6.20;;;;;;;17.24;88.43;98224.60;108588;1281;22491;-63
2022/09/15 10:35:00;;;;;;;8.60;5.20;;;;;;;17.27;88.26;98221.58;108583;1281;138916;-63
2022/09/15 10:38:04;;;;;;;7.10;6.20;;;;;;;17.29;87.97;98212.31;108705;1281;22571;-63
2022/09/15 10:41:02;;;;;;;7.20;6.00;;;;;;;17.31;87.85;98201.78;108617;1281;138788;-63
2022/09/15 10:43:36;;;;;;;;;;;;;;;17.32;87.34;98196.06;108571;1281;23139;-64
2022/09/15 10:46:19;;;;;;;5.70;5.10;;;;;;;17.33;87.02;98193.04;108655;1281;124352;-63
2022/09/15 10:49:21;;;;;;;5.80;5.20;;;;;;;17.35;86.77;98190.90;108671;1281;22457;-64
2022/09/15 10:51:48;;;;;;;9.70;5.70;;;;;;;17.37;86.39;98189.53;108673;1281;138383;-64
2022/09/15 10:54:34;;;;;;;9.40;5.30;;;;;;;17.38;85.97;98188.16;108706;1280;22466;-64
2022/09/15 10:57:14;;;;;;;6.30;5.10;;;;;;;17.39;85.65;98184.98;108633;1281;23793;-64
2022/09/15 10:59:48;;;;;;;7.50;5.10;;;;;;;17.41;85.78;98183.88;108825;1280;138715;-64
2022/09/15 11:02:33;;;;;;;5.90;5.10;;;;;;;17.42;85.60;98183.86;108626;1280;22631;-64
2022/09/15 11:05:14;;;;;;;6.70;4.80;;;;;;;17.44;85.60;98185.28;108714;1280;139679;-64
2022/09/15 11:07:58;;;;;;;10.90;6.00;;;;;;;17.46;85.33;98188.88;108797;1281;22534;-64
2022/09/15 11:10:28;;;;;;;9.60;5.40;;;;;;;17.48;85.11;98183.03;108612;1281;138124;-61
2022/09/15 11:13:04;;;;;;;6.50;4.90;;;;;;;17.48;84.82;98177.94;108706;1281;22437;-62
2022/09/15 11:16:10;;;;;;;8.50;5.10;;;;;;;17.48;84.49;98179.17;108725;1280;23119;-62
2022/09/15 11:18:59;;;;;;;7.40;5.60;;;;;;;17.48;84.41;98176.36;108721;1281;22622;-62
2022/09/15 11:21:37;;;;;;;6.60;5.90;;;;;;;17.48;84.12;98173.92;108658;1281;22489;-62
2022/09/15 11:24:26;;;;;;;10.20;6.10;;;;;;;17.48;83.89;98175.35;108540;1281;137733;-62
2022/09/15 11:27:20;;;;;;;11.40;5.80;;;;;;;17.50;83.92;98172.10;108672;1281;23837;-62
2022/09/15 11:30:03;;;;;;;6.40;5.20;;;;;;;17.50;83.86;98162.83;108697;1279;138261;-62
2022/09/15 11:32:33;;;;;;;10.00;5.40;;;;;;;17.51;83.97;98158.39;108663;1281;22524;-62
2022/09/15 11:35:37;;;;;;;7.60;5.20;;;;;;;17.53;83.98;98155.08;108523;1281;139785;-62